sensor_id;sensor_type;location;lat;lon;timestamp;P1;durP1;ratioP1;P2;durP2;ratioP2
84050;SDS011;74137;50.136;19.040;2024-02-23T00:01:30;5.90;;;2.70;;
84050;SDS011;74137;50.136;19.040;2024-02-23T00:03:59;4.70;;;2.70;;
84050;SDS011;74137;50.136;19.040;2024-02-23T00:06:27;5.30;;;2.70;;
84050;SDS011;74137;50.136;19.040;2024-02-23T00:08:59;6.70;;;3.30;;
84050;SDS011;74137;50.136;19.040;2024-02-23T00:11:27;6.00;;;2.80;;
84050;SDS011;74137;50.136;19.040;2024-02-23T00:13:56;5.90;;;3.10;;
84050;SDS011;74137;50.136;19.040;2024-02-23T00:16:25;5.60;;;2.90;;
84050;SDS011;74137;50.136;19.040;2024-02-23T00:18:54;7.10;;;2.80;;
84050;SDS011;74137;50.136;19.040;2024-02-23T00:21:22;6.80;;;2.90;;
84050;SDS011;74137;50.136;19.040;2024-02-23T00:23:51;5.40;;;2.80;;
84050;SDS011;74137;50.136;19.040;2024-02-23T00:26:19;6.00;;;2.90;;
84050;SDS011;74137;50.136;19.040;2024-02-23T00:28:47;6.60;;;3.00;;
84050;SDS011;74137;50.136;19.040;2024-02-23T00:31:16;6.60;;;3.10;;
84050;SDS011;74137;50.136;19.040;2024-02-23T00:33:44;5.30;;;3.00;;
84050;SDS011;74137;50.136;19.040;2024-02-23T00:36:12;6.10;;;2.90;;
84050;SDS011;74137;50.136;19.040;2024-02-23T00:38:43;5.30;;;3.20;;
84050;SDS011;74137;50.136;19.040;2024-02-23T00:41:11;6.80;;;3.90;;
84050;SDS011;74137;50.136;19.040;2024-02-23T00:43:40;5.80;;;3.50;;
84050;SDS011;74137;50.136;19.040;2024-02-23T00:46:09;6.00;;;3.00;;
84050;SDS011;74137;50.136;19.040;2024-02-23T00:48:37;3.60;;;2.40;;
84050;SDS011;74137;50.136;19.040;2024-02-23T00:51:06;4.60;;;2.60;;
84050;SDS011;74137;50.136;19.040;2024-02-23T00:53:35;5.80;;;2.90;;
84050;SDS011;74137;50.136;19.040;2024-02-23T00:56:03;4.30;;;2.50;;
84050;SDS011;74137;50.136;19.040;2024-02-23T00:58:32;5.10;;;2.60;;
84050;SDS011;74137;50.136;19.040;2024-02-23T01:01:01;6.80;;;2.80;;
84050;SDS011;74137;50.136;19.040;2024-02-23T01:03:32;6.10;;;2.80;;
84050;SDS011;74137;50.136;19.040;2024-02-23T01:06:00;4.90;;;2.80;;
84050;SDS011;74137;50.136;19.040;2024-02-23T01:08:29;4.90;;;2.40;;
84050;SDS011;74137;50.136;19.040;2024-02-23T01:10:58;6.00;;;2.90;;
84050;SDS011;74137;50.136;19.040;2024-02-23T01:13:29;8.40;;;2.90;;
84050;SDS011;74137;50.136;19.040;2024-02-23T01:15:57;6.00;;;3.10;;
84050;SDS011;74137;50.136;19.040;2024-02-23T01:18:28;6.20;;;3.40;;
84050;SDS011;74137;50.136;19.040;2024-02-23T01:20:56;5.30;;;2.90;;
84050;SDS011;74137;50.136;19.040;2024-02-23T01:23:25;6.50;;;3.20;;
84050;SDS011;74137;50.136;19.040;2024-02-23T01:25:54;7.00;;;3.80;;
84050;SDS011;74137;50.136;19.040;2024-02-23T01:28:22;6.30;;;3.40;;
84050;SDS011;74137;50.136;19.040;2024-02-23T01:30:51;7.70;;;3.70;;
84050;SDS011;74137;50.136;19.040;2024-02-23T01:33:19;6.40;;;3.30;;
84050;SDS011;74137;50.136;19.040;2024-02-23T01:35:48;7.50;;;3.20;;
84050;SDS011;74137;50.136;19.040;2024-02-23T01:38:16;7.20;;;3.40;;
84050;SDS011;74137;50.136;19.040;2024-02-23T01:40:52;6.90;;;3.30;;
84050;SDS011;74137;50.136;19.040;2024-02-23T01:43:20;5.50;;;2.80;;
84050;SDS011;74137;50.136;19.040;2024-02-23T01:45:48;7.70;;;3.50;;
84050;SDS011;74137;50.136;19.040;2024-02-23T01:48:19;6.40;;;2.90;;
84050;SDS011;74137;50.136;19.040;2024-02-23T01:50:51;5.30;;;2.50;;
84050;SDS011;74137;50.136;19.040;2024-02-23T01:53:19;5.00;;;2.40;;
84050;SDS011;74137;50.136;19.040;2024-02-23T01:55:51;4.60;;;2.50;;
84050;SDS011;74137;50.136;19.040;2024-02-23T01:58:21;5.30;;;2.60;;
84050;SDS011;74137;50.136;19.040;2024-02-23T02:00:50;4.20;;;2.30;;
84050;SDS011;74137;50.136;19.040;2024-02-23T02:03:19;6.30;;;2.60;;
84050;SDS011;74137;50.136;19.040;2024-02-23T02:05:47;5.40;;;2.80;;
84050;SDS011;74137;50.136;19.040;2024-02-23T02:08:17;6.00;;;2.70;;
84050;SDS011;74137;50.136;19.040;2024-02-23T02:10:46;5.40;;;2.80;;
84050;SDS011;74137;50.136;19.040;2024-02-23T02:15:44;6.40;;;2.60;;
84050;SDS011;74137;50.136;19.040;2024-02-23T02:18:12;5.70;;;2.70;;
84050;SDS011;74137;50.136;19.040;2024-02-23T02:20:40;6.60;;;3.20;;
84050;SDS011;74137;50.136;19.040;2024-02-23T02:23:19;5.10;;;2.70;;
84050;SDS011;74137;50.136;19.040;2024-02-23T02:25:53;6.00;;;2.70;;
84050;SDS011;74137;50.136;19.040;2024-02-23T02:28:26;5.90;;;2.70;;
84050;SDS011;74137;50.136;19.040;2024-02-23T02:30:54;5.80;;;2.70;;
84050;SDS011;74137;50.136;19.040;2024-02-23T02:33:22;5.30;;;2.70;;
84050;SDS011;74137;50.136;19.040;2024-02-23T02:35:53;5.40;;;2.80;;
84050;SDS011;74137;50.136;19.040;2024-02-23T02:38:21;4.60;;;2.10;;
84050;SDS011;74137;50.136;19.040;2024-02-23T02:40:49;4.30;;;2.00;;
84050;SDS011;74137;50.136;19.040;2024-02-23T02:43:18;5.90;;;2.70;;
84050;SDS011;74137;50.136;19.040;2024-02-23T02:45:47;6.50;;;2.40;;
84050;SDS011;74137;50.136;19.040;2024-02-23T02:48:15;3.90;;;1.80;;
84050;SDS011;74137;50.136;19.040;2024-02-23T02:50:43;3.30;;;2.00;;
84050;SDS011;74137;50.136;19.040;2024-02-23T02:53:13;3.20;;;1.70;;
84050;SDS011;74137;50.136;19.040;2024-02-23T02:55:41;3.80;;;1.80;;
84050;SDS011;74137;50.136;19.040;2024-02-23T02:58:14;3.70;;;1.70;;
84050;SDS011;74137;50.136;19.040;2024-02-23T03:00:42;3.00;;;1.70;;
84050;SDS011;74137;50.136;19.040;2024-02-23T03:03:11;5.20;;;2.10;;
84050;SDS011;74137;50.136;19.040;2024-02-23T03:05:40;5.40;;;2.20;;
84050;SDS011;74137;50.136;19.040;2024-02-23T03:08:09;4.60;;;2.60;;
84050;SDS011;74137;50.136;19.040;2024-02-23T03:10:37;7.20;;;2.70;;
84050;SDS011;74137;50.136;19.040;2024-02-23T03:13:08;6.30;;;3.00;;
84050;SDS011;74137;50.136;19.040;2024-02-23T03:15:36;3.50;;;2.00;;
84050;SDS011;74137;50.136;19.040;2024-02-23T03:18:04;3.70;;;2.30;;
84050;SDS011;74137;50.136;19.040;2024-02-23T03:20:33;4.70;;;2.10;;
84050;SDS011;74137;50.136;19.040;2024-02-23T03:23:01;3.10;;;1.80;;
84050;SDS011;74137;50.136;19.040;2024-02-23T03:25:31;3.40;;;1.70;;
84050;SDS011;74137;50.136;19.040;2024-02-23T03:27:59;4.60;;;2.30;;
84050;SDS011;74137;50.136;19.040;2024-02-23T03:30:28;5.30;;;2.60;;
84050;SDS011;74137;50.136;19.040;2024-02-23T03:32:56;4.10;;;1.90;;
84050;SDS011;74137;50.136;19.040;2024-02-23T03:35:27;4.20;;;1.80;;
84050;SDS011;74137;50.136;19.040;2024-02-23T03:37:57;3.10;;;1.70;;
84050;SDS011;74137;50.136;19.040;2024-02-23T03:40:27;3.70;;;2.00;;
84050;SDS011;74137;50.136;19.040;2024-02-23T03:42:55;3.30;;;1.60;;
84050;SDS011;74137;50.136;19.040;2024-02-23T03:45:24;4.50;;;1.90;;
84050;SDS011;74137;50.136;19.040;2024-02-23T03:47:52;2.00;;;1.30;;
84050;SDS011;74137;50.136;19.040;2024-02-23T03:50:20;2.60;;;1.50;;
84050;SDS011;74137;50.136;19.040;2024-02-23T03:52:53;4.50;;;1.60;;
84050;SDS011;74137;50.136;19.040;2024-02-23T03:55:21;3.50;;;1.80;;
84050;SDS011;74137;50.136;19.040;2024-02-23T03:57:50;3.10;;;1.70;;
84050;SDS011;74137;50.136;19.040;2024-02-23T04:00:18;3.70;;;1.70;;
84050;SDS011;74137;50.136;19.040;2024-02-23T04:02:50;3.20;;;1.60;;
84050;SDS011;74137;50.136;19.040;2024-02-23T04:05:23;2.80;;;1.40;;
84050;SDS011;74137;50.136;19.040;2024-02-23T04:07:51;3.30;;;1.30;;
84050;SDS011;74137;50.136;19.040;2024-02-23T04:10:22;2.80;;;1.60;;
84050;SDS011;74137;50.136;19.040;2024-02-23T04:12:51;4.80;;;1.70;;
84050;SDS011;74137;50.136;19.040;2024-02-23T04:15:21;4.30;;;1.40;;
84050;SDS011;74137;50.136;19.040;2024-02-23T04:17:50;3.60;;;1.70;;
84050;SDS011;74137;50.136;19.040;2024-02-23T04:20:18;4.30;;;1.80;;
84050;SDS011;74137;50.136;19.040;2024-02-23T04:22:46;3.80;;;1.30;;
84050;SDS011;74137;50.136;19.040;2024-02-23T04:25:15;3.40;;;1.60;;
84050;SDS011;74137;50.136;19.040;2024-02-23T04:27:43;4.40;;;2.20;;
84050;SDS011;74137;50.136;19.040;2024-02-23T04:30:12;4.20;;;2.20;;
84050;SDS011;74137;50.136;19.040;2024-02-23T04:32:40;5.20;;;2.40;;
84050;SDS011;74137;50.136;19.040;2024-02-23T04:35:12;2.20;;;1.40;;
84050;SDS011;74137;50.136;19.040;2024-02-23T04:37:43;2.60;;;1.40;;
84050;SDS011;74137;50.136;19.040;2024-02-23T04:40:13;3.70;;;1.50;;
84050;SDS011;74137;50.136;19.040;2024-02-23T04:42:43;3.90;;;1.60;;
84050;SDS011;74137;50.136;19.040;2024-02-23T04:45:12;3.60;;;1.30;;
84050;SDS011;74137;50.136;19.040;2024-02-23T04:47:40;3.10;;;1.70;;
84050;SDS011;74137;50.136;19.040;2024-02-23T04:50:09;2.70;;;1.70;;
84050;SDS011;74137;50.136;19.040;2024-02-23T04:52:38;4.30;;;2.30;;
84050;SDS011;74137;50.136;19.040;2024-02-23T04:55:06;4.80;;;1.90;;
84050;SDS011;74137;50.136;19.040;2024-02-23T04:57:36;3.10;;;1.50;;
84050;SDS011;74137;50.136;19.040;2024-02-23T05:00:05;4.50;;;2.20;;
84050;SDS011;74137;50.136;19.040;2024-02-23T05:02:35;6.20;;;2.20;;
84050;SDS011;74137;50.136;19.040;2024-02-23T05:05:04;4.30;;;2.40;;
84050;SDS011;74137;50.136;19.040;2024-02-23T05:07:33;4.50;;;1.60;;
84050;SDS011;74137;50.136;19.040;2024-02-23T05:10:02;4.50;;;1.90;;
84050;SDS011;74137;50.136;19.040;2024-02-23T05:12:31;3.70;;;1.80;;
84050;SDS011;74137;50.136;19.040;2024-02-23T05:14:59;4.70;;;1.90;;
84050;SDS011;74137;50.136;19.040;2024-02-23T05:17:30;3.50;;;1.80;;
84050;SDS011;74137;50.136;19.040;2024-02-23T05:20:00;4.90;;;2.10;;
84050;SDS011;74137;50.136;19.040;2024-02-23T05:22:28;4.80;;;1.70;;
84050;SDS011;74137;50.136;19.040;2024-02-23T05:24:56;2.90;;;1.50;;
84050;SDS011;74137;50.136;19.040;2024-02-23T05:27:25;5.10;;;2.30;;
84050;SDS011;74137;50.136;19.040;2024-02-23T05:29:55;4.90;;;2.30;;
84050;SDS011;74137;50.136;19.040;2024-02-23T05:32:23;4.40;;;2.30;;
84050;SDS011;74137;50.136;19.040;2024-02-23T05:34:52;5.10;;;2.70;;
84050;SDS011;74137;50.136;19.040;2024-02-23T05:37:22;3.90;;;2.20;;
84050;SDS011;74137;50.136;19.040;2024-02-23T05:39:50;3.40;;;1.80;;
84050;SDS011;74137;50.136;19.040;2024-02-23T05:42:19;5.10;;;1.60;;
84050;SDS011;74137;50.136;19.040;2024-02-23T05:44:50;4.00;;;1.80;;
84050;SDS011;74137;50.136;19.040;2024-02-23T05:47:18;4.20;;;2.00;;
84050;SDS011;74137;50.136;19.040;2024-02-23T05:49:46;2.60;;;1.40;;
84050;SDS011;74137;50.136;19.040;2024-02-23T05:52:15;4.60;;;1.70;;
84050;SDS011;74137;50.136;19.040;2024-02-23T05:54:43;5.80;;;2.00;;
84050;SDS011;74137;50.136;19.040;2024-02-23T05:57:12;2.80;;;1.50;;
84050;SDS011;74137;50.136;19.040;2024-02-23T05:59:40;4.00;;;2.20;;
84050;SDS011;74137;50.136;19.040;2024-02-23T06:02:08;3.30;;;2.00;;
84050;SDS011;74137;50.136;19.040;2024-02-23T06:04:37;3.00;;;1.80;;
84050;SDS011;74137;50.136;19.040;2024-02-23T06:07:05;2.70;;;1.60;;
84050;SDS011;74137;50.136;19.040;2024-02-23T06:09:33;3.30;;;1.70;;
84050;SDS011;74137;50.136;19.040;2024-02-23T06:12:01;3.30;;;1.60;;
84050;SDS011;74137;50.136;19.040;2024-02-23T06:16:59;3.30;;;1.60;;
84050;SDS011;74137;50.136;19.040;2024-02-23T06:19:28;3.10;;;1.80;;
84050;SDS011;74137;50.136;19.040;2024-02-23T06:21:56;2.10;;;1.30;;
84050;SDS011;74137;50.136;19.040;2024-02-23T06:24:25;2.40;;;1.10;;
84050;SDS011;74137;50.136;19.040;2024-02-23T06:26:53;3.10;;;1.20;;
84050;SDS011;74137;50.136;19.040;2024-02-23T06:29:22;3.60;;;1.60;;
84050;SDS011;74137;50.136;19.040;2024-02-23T06:31:50;2.70;;;1.40;;
84050;SDS011;74137;50.136;19.040;2024-02-23T06:34:18;3.40;;;1.60;;
84050;SDS011;74137;50.136;19.040;2024-02-23T06:36:47;5.00;;;1.90;;
84050;SDS011;74137;50.136;19.040;2024-02-23T06:39:15;3.80;;;1.70;;
84050;SDS011;74137;50.136;19.040;2024-02-23T06:41:46;5.30;;;2.00;;
84050;SDS011;74137;50.136;19.040;2024-02-23T06:44:15;4.50;;;1.70;;
84050;SDS011;74137;50.136;19.040;2024-02-23T06:46:43;6.80;;;2.10;;
84050;SDS011;74137;50.136;19.040;2024-02-23T06:49:12;5.30;;;1.70;;
84050;SDS011;74137;50.136;19.040;2024-02-23T06:51:40;4.30;;;1.80;;
84050;SDS011;74137;50.136;19.040;2024-02-23T06:54:11;3.40;;;1.50;;
84050;SDS011;74137;50.136;19.040;2024-02-23T06:56:39;3.40;;;1.70;;
84050;SDS011;74137;50.136;19.040;2024-02-23T06:59:08;4.40;;;2.00;;
84050;SDS011;74137;50.136;19.040;2024-02-23T07:01:46;6.30;;;1.90;;
84050;SDS011;74137;50.136;19.040;2024-02-23T07:04:17;4.10;;;1.80;;
84050;SDS011;74137;50.136;19.040;2024-02-23T07:06:46;5.30;;;2.60;;
84050;SDS011;74137;50.136;19.040;2024-02-23T07:09:14;6.70;;;3.00;;
84050;SDS011;74137;50.136;19.040;2024-02-23T07:11:42;7.20;;;2.80;;
84050;SDS011;74137;50.136;19.040;2024-02-23T07:14:12;5.40;;;2.90;;
84050;SDS011;74137;50.136;19.040;2024-02-23T07:16:42;6.60;;;3.20;;
84050;SDS011;74137;50.136;19.040;2024-02-23T07:19:10;4.90;;;2.10;;
84050;SDS011;74137;50.136;19.040;2024-02-23T07:21:41;5.50;;;2.40;;
84050;SDS011;74137;50.136;19.040;2024-02-23T07:24:11;10.80;;;5.50;;
84050;SDS011;74137;50.136;19.040;2024-02-23T07:26:39;13.50;;;7.20;;
84050;SDS011;74137;50.136;19.040;2024-02-23T07:29:08;10.20;;;4.60;;
84050;SDS011;74137;50.136;19.040;2024-02-23T07:31:36;7.40;;;3.90;;
84050;SDS011;74137;50.136;19.040;2024-02-23T07:34:07;5.90;;;3.50;;
84050;SDS011;74137;50.136;19.040;2024-02-23T07:36:36;4.20;;;2.10;;
84050;SDS011;74137;50.136;19.040;2024-02-23T07:39:05;3.00;;;1.70;;
84050;SDS011;74137;50.136;19.040;2024-02-23T07:41:34;3.70;;;1.80;;
84050;SDS011;74137;50.136;19.040;2024-02-23T07:44:02;3.50;;;1.80;;
84050;SDS011;74137;50.136;19.040;2024-02-23T07:46:31;3.40;;;1.50;;
84050;SDS011;74137;50.136;19.040;2024-02-23T07:48:59;3.50;;;1.50;;
84050;SDS011;74137;50.136;19.040;2024-02-23T07:51:30;3.70;;;2.00;;
84050;SDS011;74137;50.136;19.040;2024-02-23T07:53:58;4.30;;;1.90;;
84050;SDS011;74137;50.136;19.040;2024-02-23T07:56:26;4.30;;;2.20;;
84050;SDS011;74137;50.136;19.040;2024-02-23T07:58:55;4.90;;;2.20;;
84050;SDS011;74137;50.136;19.040;2024-02-23T08:01:25;4.50;;;1.90;;
84050;SDS011;74137;50.136;19.040;2024-02-23T08:03:53;4.70;;;2.50;;
84050;SDS011;74137;50.136;19.040;2024-02-23T08:06:22;4.80;;;2.40;;
84050;SDS011;74137;50.136;19.040;2024-02-23T08:08:50;6.00;;;3.10;;
84050;SDS011;74137;50.136;19.040;2024-02-23T08:11:18;6.30;;;3.20;;
84050;SDS011;74137;50.136;19.040;2024-02-23T08:13:47;4.90;;;2.60;;
84050;SDS011;74137;50.136;19.040;2024-02-23T08:16:16;6.20;;;3.20;;
84050;SDS011;74137;50.136;19.040;2024-02-23T08:18:46;8.30;;;4.00;;
84050;SDS011;74137;50.136;19.040;2024-02-23T08:21:15;9.70;;;4.90;;
84050;SDS011;74137;50.136;19.040;2024-02-23T08:23:43;9.40;;;4.40;;
84050;SDS011;74137;50.136;19.040;2024-02-23T08:26:12;8.30;;;4.30;;
84050;SDS011;74137;50.136;19.040;2024-02-23T08:28:41;7.10;;;3.50;;
84050;SDS011;74137;50.136;19.040;2024-02-23T08:31:09;5.60;;;2.80;;
84050;SDS011;74137;50.136;19.040;2024-02-23T08:33:38;5.70;;;2.80;;
84050;SDS011;74137;50.136;19.040;2024-02-23T08:36:06;7.50;;;2.90;;
84050;SDS011;74137;50.136;19.040;2024-02-23T08:38:38;5.70;;;3.00;;
84050;SDS011;74137;50.136;19.040;2024-02-23T08:41:06;7.40;;;4.10;;
84050;SDS011;74137;50.136;19.040;2024-02-23T08:46:04;8.60;;;4.30;;
84050;SDS011;74137;50.136;19.040;2024-02-23T08:48:37;7.30;;;3.70;;
84050;SDS011;74137;50.136;19.040;2024-02-23T08:51:05;6.20;;;3.50;;
84050;SDS011;74137;50.136;19.040;2024-02-23T08:53:34;7.70;;;4.10;;
84050;SDS011;74137;50.136;19.040;2024-02-23T08:56:03;8.40;;;4.30;;
84050;SDS011;74137;50.136;19.040;2024-02-23T08:58:34;7.70;;;2.80;;
84050;SDS011;74137;50.136;19.040;2024-02-23T09:01:05;5.20;;;2.70;;
84050;SDS011;74137;50.136;19.040;2024-02-23T09:03:34;5.10;;;2.60;;
84050;SDS011;74137;50.136;19.040;2024-02-23T09:06:02;7.00;;;3.10;;
84050;SDS011;74137;50.136;19.040;2024-02-23T09:08:32;6.50;;;3.00;;
84050;SDS011;74137;50.136;19.040;2024-02-23T09:11:00;7.80;;;3.10;;
84050;SDS011;74137;50.136;19.040;2024-02-23T09:13:29;6.40;;;3.10;;
84050;SDS011;74137;50.136;19.040;2024-02-23T09:16:00;5.40;;;2.90;;
84050;SDS011;74137;50.136;19.040;2024-02-23T09:18:29;7.20;;;2.90;;
84050;SDS011;74137;50.136;19.040;2024-02-23T09:20:59;4.70;;;2.40;;
84050;SDS011;74137;50.136;19.040;2024-02-23T09:23:27;5.80;;;2.60;;
84050;SDS011;74137;50.136;19.040;2024-02-23T09:25:57;5.50;;;2.90;;
84050;SDS011;74137;50.136;19.040;2024-02-23T09:28:25;5.90;;;2.70;;
84050;SDS011;74137;50.136;19.040;2024-02-23T09:30:53;7.70;;;3.10;;
84050;SDS011;74137;50.136;19.040;2024-02-23T09:33:24;6.10;;;2.90;;
84050;SDS011;74137;50.136;19.040;2024-02-23T09:35:53;5.50;;;2.60;;
84050;SDS011;74137;50.136;19.040;2024-02-23T09:38:21;5.50;;;2.90;;
84050;SDS011;74137;50.136;19.040;2024-02-23T09:40:52;5.40;;;2.10;;
84050;SDS011;74137;50.136;19.040;2024-02-23T09:43:21;4.80;;;2.00;;
84050;SDS011;74137;50.136;19.040;2024-02-23T09:45:55;5.60;;;2.30;;
84050;SDS011;74137;50.136;19.040;2024-02-23T09:48:25;5.60;;;2.50;;
84050;SDS011;74137;50.136;19.040;2024-02-23T09:50:56;4.60;;;2.30;;
84050;SDS011;74137;50.136;19.040;2024-02-23T09:53:27;4.70;;;2.00;;
84050;SDS011;74137;50.136;19.040;2024-02-23T09:55:55;4.50;;;2.10;;
84050;SDS011;74137;50.136;19.040;2024-02-23T09:58:28;5.60;;;2.60;;
84050;SDS011;74137;50.136;19.040;2024-02-23T10:00:59;6.30;;;3.20;;
84050;SDS011;74137;50.136;19.040;2024-02-23T10:03:29;6.40;;;2.50;;
84050;SDS011;74137;50.136;19.040;2024-02-23T10:05:59;5.50;;;2.60;;
84050;SDS011;74137;50.136;19.040;2024-02-23T10:08:30;6.40;;;3.00;;
84050;SDS011;74137;50.136;19.040;2024-02-23T10:11:00;5.40;;;2.60;;
84050;SDS011;74137;50.136;19.040;2024-02-23T10:13:29;6.10;;;2.10;;
84050;SDS011;74137;50.136;19.040;2024-02-23T10:16:00;4.20;;;2.20;;
84050;SDS011;74137;50.136;19.040;2024-02-23T10:18:42;8.30;;;4.40;;
84050;SDS011;74137;50.136;19.040;2024-02-23T10:21:11;8.90;;;5.40;;
84050;SDS011;74137;50.136;19.040;2024-02-23T10:23:40;9.50;;;5.70;;
84050;SDS011;74137;50.136;19.040;2024-02-23T10:26:09;7.60;;;4.10;;
84050;SDS011;74137;50.136;19.040;2024-02-23T10:28:38;8.10;;;4.90;;
84050;SDS011;74137;50.136;19.040;2024-02-23T10:31:07;7.40;;;4.00;;
84050;SDS011;74137;50.136;19.040;2024-02-23T10:33:40;8.60;;;4.30;;
84050;SDS011;74137;50.136;19.040;2024-02-23T10:36:12;7.30;;;3.10;;
84050;SDS011;74137;50.136;19.040;2024-02-23T10:38:45;9.30;;;4.10;;
84050;SDS011;74137;50.136;19.040;2024-02-23T10:41:15;5.10;;;2.30;;
84050;SDS011;74137;50.136;19.040;2024-02-23T10:43:46;6.90;;;2.70;;
84050;SDS011;74137;50.136;19.040;2024-02-23T10:46:16;6.70;;;2.60;;
84050;SDS011;74137;50.136;19.040;2024-02-23T10:48:46;8.70;;;3.50;;
84050;SDS011;74137;50.136;19.040;2024-02-23T10:51:17;8.00;;;3.80;;
84050;SDS011;74137;50.136;19.040;2024-02-23T10:53:48;7.10;;;3.00;;
84050;SDS011;74137;50.136;19.040;2024-02-23T10:56:18;3.90;;;2.30;;
84050;SDS011;74137;50.136;19.040;2024-02-23T10:58:47;5.30;;;2.40;;
84050;SDS011;74137;50.136;19.040;2024-02-23T11:01:16;4.20;;;1.90;;
84050;SDS011;74137;50.136;19.040;2024-02-23T11:03:48;6.30;;;2.80;;
84050;SDS011;74137;50.136;19.040;2024-02-23T11:06:19;5.70;;;2.70;;
84050;SDS011;74137;50.136;19.040;2024-02-23T11:08:49;5.60;;;2.60;;
84050;SDS011;74137;50.136;19.040;2024-02-23T11:11:20;7.00;;;3.40;;
84050;SDS011;74137;50.136;19.040;2024-02-23T11:13:48;5.30;;;2.90;;
84050;SDS011;74137;50.136;19.040;2024-02-23T11:16:25;9.10;;;4.50;;
84050;SDS011;74137;50.136;19.040;2024-02-23T11:19:03;7.10;;;4.80;;
84050;SDS011;74137;50.136;19.040;2024-02-23T11:21:37;8.50;;;5.40;;
84050;SDS011;74137;50.136;19.040;2024-02-23T11:24:06;6.90;;;3.60;;
84050;SDS011;74137;50.136;19.040;2024-02-23T11:26:36;7.90;;;3.50;;
84050;SDS011;74137;50.136;19.040;2024-02-23T11:29:11;5.30;;;3.00;;
84050;SDS011;74137;50.136;19.040;2024-02-23T11:31:46;7.60;;;3.70;;
84050;SDS011;74137;50.136;19.040;2024-02-23T11:34:21;6.40;;;3.60;;
84050;SDS011;74137;50.136;19.040;2024-02-23T11:36:54;5.40;;;3.10;;
84050;SDS011;74137;50.136;19.040;2024-02-23T11:39:24;4.20;;;2.30;;
84050;SDS011;74137;50.136;19.040;2024-02-23T11:41:54;4.70;;;1.80;;
84050;SDS011;74137;50.136;19.040;2024-02-23T11:44:22;4.60;;;1.70;;
84050;SDS011;74137;50.136;19.040;2024-02-23T11:46:51;4.10;;;1.80;;
84050;SDS011;74137;50.136;19.040;2024-02-23T11:49:20;4.80;;;1.90;;
84050;SDS011;74137;50.136;19.040;2024-02-23T11:54:24;3.90;;;1.60;;
84050;SDS011;74137;50.136;19.040;2024-02-23T11:56:53;4.60;;;1.60;;
84050;SDS011;74137;50.136;19.040;2024-02-23T11:59:21;3.90;;;1.90;;
84050;SDS011;74137;50.136;19.040;2024-02-23T12:01:51;5.90;;;2.20;;
84050;SDS011;74137;50.136;19.040;2024-02-23T12:04:20;6.20;;;2.70;;
84050;SDS011;74137;50.136;19.040;2024-02-23T12:06:50;3.70;;;1.90;;
84050;SDS011;74137;50.136;19.040;2024-02-23T12:09:20;5.70;;;1.90;;
84050;SDS011;74137;50.136;19.040;2024-02-23T12:11:54;5.30;;;2.00;;
84050;SDS011;74137;50.136;19.040;2024-02-23T12:14:24;5.60;;;1.90;;
84050;SDS011;74137;50.136;19.040;2024-02-23T12:17:26;8.30;;;4.20;;
84050;SDS011;74137;50.136;19.040;2024-02-23T12:19:59;6.10;;;3.20;;
84050;SDS011;74137;50.136;19.040;2024-02-23T12:22:37;4.90;;;2.20;;
84050;SDS011;74137;50.136;19.040;2024-02-23T12:25:12;6.20;;;2.50;;
84050;SDS011;74137;50.136;19.040;2024-02-23T12:27:41;5.10;;;2.30;;
84050;SDS011;74137;50.136;19.040;2024-02-23T12:30:14;4.70;;;2.60;;
84050;SDS011;74137;50.136;19.040;2024-02-23T12:32:44;6.80;;;3.20;;
84050;SDS011;74137;50.136;19.040;2024-02-23T12:35:12;5.40;;;2.40;;
84050;SDS011;74137;50.136;19.040;2024-02-23T12:37:44;4.70;;;2.20;;
84050;SDS011;74137;50.136;19.040;2024-02-23T12:40:13;3.90;;;1.90;;
84050;SDS011;74137;50.136;19.040;2024-02-23T12:42:43;4.30;;;2.10;;
84050;SDS011;74137;50.136;19.040;2024-02-23T12:45:12;4.80;;;2.70;;
84050;SDS011;74137;50.136;19.040;2024-02-23T12:47:41;5.30;;;2.30;;
84050;SDS011;74137;50.136;19.040;2024-02-23T12:50:10;7.10;;;4.60;;
84050;SDS011;74137;50.136;19.040;2024-02-23T12:52:40;10.20;;;6.70;;
84050;SDS011;74137;50.136;19.040;2024-02-23T12:55:09;8.70;;;6.30;;
84050;SDS011;74137;50.136;19.040;2024-02-23T12:57:38;6.30;;;4.00;;
84050;SDS011;74137;50.136;19.040;2024-02-23T13:00:06;6.70;;;3.90;;
84050;SDS011;74137;50.136;19.040;2024-02-23T13:02:36;7.10;;;3.50;;
84050;SDS011;74137;50.136;19.040;2024-02-23T13:05:05;6.40;;;3.30;;
84050;SDS011;74137;50.136;19.040;2024-02-23T13:10:03;8.90;;;3.50;;
84050;SDS011;74137;50.136;19.040;2024-02-23T13:15:01;7.10;;;4.40;;
84050;SDS011;74137;50.136;19.040;2024-02-23T13:17:29;7.20;;;3.90;;
84050;SDS011;74137;50.136;19.040;2024-02-23T13:19:58;6.60;;;3.60;;
84050;SDS011;74137;50.136;19.040;2024-02-23T13:22:38;8.60;;;4.30;;
84050;SDS011;74137;50.136;19.040;2024-02-23T13:25:07;7.40;;;3.30;;
84050;SDS011;74137;50.136;19.040;2024-02-23T13:27:35;7.90;;;4.50;;
84050;SDS011;74137;50.136;19.040;2024-02-23T13:30:04;8.40;;;4.60;;
84050;SDS011;74137;50.136;19.040;2024-02-23T13:32:32;8.50;;;5.70;;
84050;SDS011;74137;50.136;19.040;2024-02-23T13:35:01;10.10;;;5.20;;
84050;SDS011;74137;50.136;19.040;2024-02-23T13:37:32;10.50;;;5.90;;
84050;SDS011;74137;50.136;19.040;2024-02-23T13:40:01;8.20;;;4.50;;
84050;SDS011;74137;50.136;19.040;2024-02-23T13:42:30;8.90;;;4.60;;
84050;SDS011;74137;50.136;19.040;2024-02-23T13:44:59;9.00;;;4.40;;
84050;SDS011;74137;50.136;19.040;2024-02-23T13:47:28;10.50;;;5.20;;
84050;SDS011;74137;50.136;19.040;2024-02-23T13:49:56;9.80;;;6.00;;
84050;SDS011;74137;50.136;19.040;2024-02-23T13:52:25;9.90;;;6.00;;
84050;SDS011;74137;50.136;19.040;2024-02-23T13:54:54;9.80;;;5.50;;
84050;SDS011;74137;50.136;19.040;2024-02-23T13:57:22;7.00;;;3.70;;
84050;SDS011;74137;50.136;19.040;2024-02-23T13:59:51;7.10;;;3.50;;
84050;SDS011;74137;50.136;19.040;2024-02-23T14:02:26;9.10;;;4.00;;
84050;SDS011;74137;50.136;19.040;2024-02-23T14:07:35;9.20;;;4.20;;
84050;SDS011;74137;50.136;19.040;2024-02-23T14:10:05;8.00;;;4.40;;
84050;SDS011;74137;50.136;19.040;2024-02-23T14:15:14;8.80;;;4.20;;
84050;SDS011;74137;50.136;19.040;2024-02-23T14:17:44;7.10;;;3.80;;
84050;SDS011;74137;50.136;19.040;2024-02-23T14:20:12;8.50;;;4.30;;
84050;SDS011;74137;50.136;19.040;2024-02-23T14:22:41;8.70;;;4.20;;
84050;SDS011;74137;50.136;19.040;2024-02-23T14:25:10;9.00;;;4.40;;
84050;SDS011;74137;50.136;19.040;2024-02-23T14:27:38;8.60;;;4.70;;
84050;SDS011;74137;50.136;19.040;2024-02-23T14:30:08;8.70;;;4.60;;
84050;SDS011;74137;50.136;19.040;2024-02-23T14:32:51;11.00;;;5.10;;
84050;SDS011;74137;50.136;19.040;2024-02-23T14:35:22;9.40;;;4.60;;
84050;SDS011;74137;50.136;19.040;2024-02-23T14:37:52;8.60;;;5.00;;
84050;SDS011;74137;50.136;19.040;2024-02-23T14:42:51;7.40;;;3.90;;
84050;SDS011;74137;50.136;19.040;2024-02-23T14:47:56;9.00;;;4.20;;
84050;SDS011;74137;50.136;19.040;2024-02-23T14:50:27;7.30;;;3.90;;
84050;SDS011;74137;50.136;19.040;2024-02-23T14:52:55;8.20;;;3.80;;
84050;SDS011;74137;50.136;19.040;2024-02-23T14:55:25;22.30;;;10.80;;
84050;SDS011;74137;50.136;19.040;2024-02-23T14:57:56;19.40;;;9.70;;
84050;SDS011;74137;50.136;19.040;2024-02-23T15:02:55;12.20;;;6.10;;
84050;SDS011;74137;50.136;19.040;2024-02-23T15:05:25;13.90;;;7.50;;
84050;SDS011;74137;50.136;19.040;2024-02-23T15:07:54;19.50;;;10.70;;
84050;SDS011;74137;50.136;19.040;2024-02-23T15:10:22;23.50;;;13.00;;
84050;SDS011;74137;50.136;19.040;2024-02-23T15:12:51;9.50;;;5.50;;
84050;SDS011;74137;50.136;19.040;2024-02-23T15:15:20;6.80;;;3.80;;